Time;durP1;ratioP1;P1;durP2;ratioP2;P2;SDS_P1;SDS_P2;PMS_P1;PMS_P2;Temp;Humidity;BMP_temperature;BMP_pressure;BME280_temperature;BME280_humidity;BME280_pressure;Samples;Min_cycle;Max_cycle;Signal;HPM_P1;HPM_P2
2023/10/15 00:00:13;;;;;;;5.87;1.87;;;6.90;99.90;;;;;;5034931;28;20179;-74
2023/10/15 00:02:41;;;;;;;5.23;1.60;;;6.90;99.90;;;;;;5033335;28;20615;-74
2023/10/15 00:05:17;;;;;;;9.73;2.20;;;6.90;99.90;;;;;;5034782;28;20247;-74
2023/10/15 00:07:44;;;;;;;5.60;2.00;;;6.90;99.90;;;;;;5034994;28;20554;-74
2023/10/15 00:10:17;;;;;;;7.47;1.83;;;6.90;99.90;;;;;;5033412;28;20203;-74
2023/10/15 00:12:44;;;;;;;7.03;2.13;;;7.00;99.90;;;;;;5033866;28;20211;-74
2023/10/15 00:15:18;;;;;;;12.27;2.20;;;6.90;99.90;;;;;;5034835;28;20175;-74
2023/10/15 00:17:46;;;;;;;4.77;1.50;;;6.90;99.90;;;;;;5034645;28;20240;-75
2023/10/15 00:20:19;;;;;;;9.70;1.97;;;6.80;99.90;;;;;;5034747;28;20179;-75
2023/10/15 00:22:49;;;;;;;8.50;1.83;;;6.70;99.90;;;;;;5033816;28;20230;-75
2023/10/15 00:25:18;;;;;;;5.93;1.80;;;6.70;99.90;;;;;;5034448;28;20163;-74
2023/10/15 00:27:44;;;;;;;6.10;1.97;;;6.70;99.90;;;;;;5033804;28;20169;-75
2023/10/15 00:30:13;;;;;;;5.03;1.90;;;6.60;99.90;;;;;;5037362;28;20199;-75
2023/10/15 00:32:42;;;;;;;5.00;2.53;;;6.70;99.90;;;;;;5045503;28;20200;-74
2023/10/15 00:35:08;;;;;;;4.67;1.93;;;6.60;99.90;;;;;;5034167;28;20211;-75
2023/10/15 00:37:35;;;;;;;3.63;1.50;;;6.60;99.90;;;;;;5032804;28;20179;-75
2023/10/15 00:40:03;;;;;;;6.00;1.97;;;6.60;99.90;;;;;;5032814;28;20196;-75
2023/10/15 00:42:30;;;;;;;8.03;2.07;;;6.60;99.90;;;;;;5034073;28;20196;-74
2023/10/15 00:44:57;;;;;;;8.10;2.70;;;6.50;99.90;;;;;;5036160;28;20290;-74
2023/10/15 00:47:22;;;;;;;4.97;1.80;;;6.60;99.90;;;;;;5052937;28;20171;-75
2023/10/15 00:49:48;;;;;;;6.03;2.00;;;6.50;99.90;;;;;;5052498;28;20174;-75
2023/10/15 00:52:15;;;;;;;9.00;2.10;;;6.50;99.90;;;;;;5053708;28;20282;-74
2023/10/15 00:54:41;;;;;;;9.27;2.20;;;6.40;99.90;;;;;;5052429;28;20262;-75
2023/10/15 00:57:41;;;;;;;4.80;2.00;;;6.40;99.90;;;;;;5052328;28;20770;-75
2023/10/15 01:03:17;;;;;;;7.53;1.70;;;6.50;99.90;;;;;;5042618;28;20241;-74
2023/10/15 01:05:53;;;;;;;7.77;2.07;;;6.50;99.90;;;;;;5051667;28;20179;-75
2023/10/15 01:08:25;;;;;;;3.87;1.80;;;6.50;99.90;;;;;;5041553;28;20202;-75
2023/10/15 01:11:10;;;;;;;4.33;1.70;;;6.50;99.90;;;;;;5033839;28;20160;-75
2023/10/15 01:13:38;;;;;;;5.90;1.90;;;6.50;99.90;;;;;;5033769;28;20304;-75
2023/10/15 01:16:08;;;;;;;11.47;2.00;;;6.50;99.90;;;;;;5033387;28;20212;-75
2023/10/15 01:18:37;;;;;;;6.40;1.60;;;6.50;99.90;;;;;;5042005;28;20180;-75
2023/10/15 01:21:04;;;;;;;3.63;1.57;;;6.50;99.90;;;;;;5052267;28;20301;-75
2023/10/15 01:23:44;;;;;;;2.83;1.47;;;6.50;99.90;;;;;;5053096;28;20237;-74
2023/10/15 01:26:15;;;;;;;3.87;1.43;;;6.60;99.90;;;;;;5053208;28;20198;-75
2023/10/15 01:28:43;;;;;;;6.33;1.80;;;6.50;99.90;;;;;;5051855;28;20183;-75
2023/10/15 01:31:14;;;;;;;6.33;1.93;;;6.40;99.90;;;;;;5051557;28;20276;-74
2023/10/15 01:33:46;;;;;;;15.30;3.70;;;6.40;99.90;;;;;;5052609;28;20199;-73
2023/10/15 01:36:19;;;;;;;4.63;1.83;;;6.30;99.90;;;;;;5050869;28;20206;-75
2023/10/15 01:38:45;;;;;;;4.97;2.03;;;6.30;99.90;;;;;;5053396;28;20156;-75
2023/10/15 01:41:13;;;;;;;8.60;2.30;;;6.30;99.90;;;;;;5052744;28;20211;-74
2023/10/15 01:43:40;;;;;;;4.97;1.93;;;6.40;99.90;;;;;;5051380;28;20662;-75
2023/10/15 01:46:10;;;;;;;9.03;2.03;;;6.50;99.90;;;;;;5044686;28;20180;-74
2023/10/15 01:48:39;;;;;;;8.37;1.90;;;6.50;99.90;;;;;;5033062;28;20155;-74
2023/10/15 01:51:09;;;;;;;7.20;2.00;;;6.60;99.90;;;;;;5032943;28;20271;-74
2023/10/15 01:53:39;;;;;;;6.27;2.13;;;6.70;99.90;;;;;;5032719;28;20189;-75
2023/10/15 01:56:04;;;;;;;6.63;2.20;;;6.80;99.90;;;;;;5032709;28;20243;-73
2023/10/15 01:58:31;;;;;;;7.47;2.63;;;6.90;99.90;;;;;;5032877;28;20194;-74
2023/10/15 02:01:13;;;;;;;12.63;4.63;;;7.00;99.90;;;;;;5042489;28;20182;-75
2023/10/15 02:03:41;;;;;;;10.13;3.40;;;7.00;99.90;;;;;;5052460;28;20651;-75
2023/10/15 02:06:07;;;;;;;10.47;4.53;;;7.10;99.90;;;;;;5052414;28;20714;-75
2023/10/15 02:08:35;;;;;;;15.13;6.00;;;7.20;99.90;;;;;;5052631;28;20168;-75
2023/10/15 02:11:09;;;;;;;11.60;5.90;;;7.30;99.90;;;;;;5052520;28;20168;-74
2023/10/15 02:13:37;;;;;;;13.10;6.30;;;7.40;99.90;;;;;;5052265;28;20184;-74
2023/10/15 02:16:08;;;;;;;13.03;7.00;;;7.50;99.90;;;;;;5051078;28;20174;-75
2023/10/15 02:18:35;;;;;;;13.80;8.77;;;7.60;99.90;;;;;;5048048;28;20632;-74
2023/10/15 02:21:01;;;;;;;18.97;8.10;;;7.70;99.90;;;;;;5030972;28;20293;-74
2023/10/15 02:23:27;;;;;;;13.23;7.20;;;7.70;99.90;;;;;;5032283;28;20192;-75
2023/10/15 02:25:57;;;;;;;12.03;6.93;;;7.80;99.90;;;;;;5032439;28;20222;-75
2023/10/15 02:28:27;;;;;;;11.47;6.40;;;7.80;99.90;;;;;;5032637;28;20507;-75
2023/10/15 02:31:10;;;;;;;13.23;6.33;;;7.80;99.90;;;;;;5032357;28;20566;-75
2023/10/15 02:33:36;;;;;;;12.83;6.20;;;7.90;99.90;;;;;;5034862;28;20249;-75
2023/10/15 02:36:07;;;;;;;10.97;5.60;;;7.90;99.90;;;;;;5052045;28;20654;-75
2023/10/15 02:38:37;;;;;;;11.70;5.43;;;8.00;99.90;;;;;;5032045;28;20208;-75
2023/10/15 02:41:03;;;;;;;9.20;5.80;;;8.00;99.90;;;;;;5038957;28;20183;-75
2023/10/15 02:43:30;;;;;;;14.17;6.27;;;8.00;99.90;;;;;;5051906;28;20230;-75
2023/10/15 02:46:19;;;;;;;11.37;5.70;;;8.00;99.90;;;;;;5054360;28;20175;-75
2023/10/15 02:48:47;;;;;;;12.23;4.97;;;8.10;99.90;;;;;;5057211;28;20248;-75
2023/10/15 02:51:17;;;;;;;10.07;5.50;;;8.10;99.90;;;;;;5057077;28;20183;-74
2023/10/15 02:53:50;;;;;;;11.67;5.27;;;8.20;99.90;;;;;;5058497;28;20195;-75
2023/10/15 02:56:17;;;;;;;7.77;5.40;;;8.20;99.90;;;;;;5039937;28;20191;-75
2023/10/15 02:58:44;;;;;;;8.97;5.60;;;8.10;99.90;;;;;;5037346;28;20210;-75
2023/10/15 03:01:20;;;;;;;8.63;5.10;;;8.10;99.90;;;;;;5038408;28;20176;-75
2023/10/15 03:03:50;;;;;;;15.30;5.43;;;8.20;99.90;;;;;;5037121;28;20579;-75
2023/10/15 03:06:26;;;;;;;9.53;5.70;;;8.20;99.90;;;;;;5038459;28;20175;-74
2023/10/15 03:08:52;;;;;;;12.90;5.57;;;8.20;99.90;;;;;;5038611;28;20259;-74
2023/10/15 03:11:20;;;;;;;12.93;5.93;;;8.20;99.90;;;;;;5039148;28;20207;-75
2023/10/15 03:13:55;;;;;;;12.23;6.10;;;8.30;99.90;;;;;;5056570;28;20670;-75
2023/10/15 03:16:33;;;;;;;9.93;6.17;;;8.30;99.90;;;;;;5058338;28;20190;-74
2023/10/15 03:19:17;;;;;;;9.83;5.93;;;8.30;99.90;;;;;;5058313;28;20563;-75
2023/10/15 03:21:43;;;;;;;14.63;6.10;;;8.20;99.90;;;;;;5058162;28;20650;-75
2023/10/15 03:24:09;;;;;;;14.40;5.97;;;8.20;99.90;;;;;;5058287;28;20187;-75
2023/10/15 03:26:35;;;;;;;13.40;6.10;;;8.20;99.90;;;;;;5058250;28;20167;-75
2023/10/15 03:29:13;;;;;;;9.17;5.83;;;8.20;99.90;;;;;;5046816;28;20231;-75
2023/10/15 03:31:44;;;;;;;18.73;6.57;;;8.10;99.90;;;;;;5053139;28;20563;-75
2023/10/15 03:36:49;;;;;;;12.47;5.10;;;8.10;99.90;;;;;;5058155;28;20178;-75
2023/10/15 03:39:16;;;;;;;5.47;2.60;;;8.00;99.90;;;;;;5058377;28;20179;-75
2023/10/15 03:41:52;;;;;;;8.77;4.43;;;8.00;99.90;;;;;;5056703;28;20643;-75
2023/10/15 03:44:23;;;;;;;8.53;4.83;;;8.00;99.90;;;;;;5057394;28;20187;-75
2023/10/15 03:46:50;;;;;;;16.73;5.00;;;8.00;99.90;;;;;;5056727;28;20264;-75
2023/10/15 03:49:20;;;;;;;13.57;7.27;;;8.10;99.90;;;;;;5058020;28;20198;-75
2023/10/15 03:51:48;;;;;;;10.77;5.90;;;8.10;99.90;;;;;;5057296;28;20196;-75
2023/10/15 03:54:14;;;;;;;9.80;4.97;;;8.10;99.90;;;;;;5056566;28;20179;-75
2023/10/15 03:56:43;;;;;;;8.70;4.10;;;8.00;99.90;;;;;;5056186;28;20270;-75
2023/10/15 03:59:11;;;;;;;5.40;3.27;;;8.00;99.90;;;;;;5054109;28;20175;-74
2023/10/15 04:01:43;;;;;;;6.43;3.03;;;8.00;99.90;;;;;;5053049;28;20207;-74
2023/10/15 04:04:09;;;;;;;10.63;3.60;;;8.10;99.90;;;;;;5053579;28;20187;-74
2023/10/15 04:06:35;;;;;;;6.50;3.37;;;8.00;99.90;;;;;;5037720;28;20261;-75
2023/10/15 04:11:30;;;;;;;4.60;3.27;;;8.10;99.90;;;;;;5034960;28;20234;-75
2023/10/15 04:13:57;;;;;;;9.00;3.97;;;8.10;99.90;;;;;;5033252;28;20222;-75
2023/10/15 04:16:23;;;;;;;11.23;4.10;;;8.10;99.90;;;;;;5034532;28;20545;-75
2023/10/15 04:18:49;;;;;;;8.67;4.83;;;8.10;99.90;;;;;;5046617;28;20248;-75
2023/10/15 04:21:17;;;;;;;11.67;4.87;;;8.10;99.90;;;;;;5054382;28;20211;-74
2023/10/15 04:23:49;;;;;;;7.87;3.37;;;8.00;99.90;;;;;;5054259;28;20192;-74
2023/10/15 04:26:14;;;;;;;5.20;2.37;;;8.10;99.90;;;;;;5053060;28;20532;-74
2023/10/15 04:28:41;;;;;;;6.37;2.43;;;8.00;99.90;;;;;;5054254;28;20179;-74
2023/10/15 04:31:12;;;;;;;6.70;2.70;;;7.90;99.90;;;;;;5054058;28;20180;-75
2023/10/15 04:33:41;;;;;;;6.53;2.27;;;7.90;99.90;;;;;;5054370;28;20221;-74
2023/10/15 04:36:10;;;;;;;5.40;2.10;;;7.80;99.90;;;;;;5036982;28;20195;-74
2023/10/15 04:38:36;;;;;;;5.27;1.67;;;7.80;99.90;;;;;;5034163;28;20187;-74
2023/10/15 04:41:03;;;;;;;4.90;1.83;;;7.70;99.90;;;;;;5040316;28;20184;-75
2023/10/15 04:43:40;;;;;;;4.67;1.77;;;7.70;99.90;;;;;;5045612;28;20192;-74
2023/10/15 04:46:07;;;;;;;3.73;1.80;;;7.70;99.90;;;;;;5034038;28;20212;-75
2023/10/15 04:48:36;;;;;;;3.70;2.10;;;7.70;99.90;;;;;;5033955;28;20169;-74
2023/10/15 04:51:06;;;;;;;7.63;3.40;;;7.70;99.90;;;;;;5034277;28;20520;-73
2023/10/15 04:53:32;;;;;;;4.77;3.70;;;7.70;99.90;;;;;;5032455;28;20204;-73
2023/10/15 04:55:59;;;;;;;6.43;3.60;;;7.70;99.90;;;;;;5033872;28;20551;-74
2023/10/15 04:58:27;;;;;;;4.67;2.90;;;7.70;99.90;;;;;;5033837;28;20230;-74
2023/10/15 05:00:54;;;;;;;4.27;2.33;;;7.70;99.90;;;;;;5050218;28;20188;-74
2023/10/15 05:03:23;;;;;;;4.87;2.70;;;7.80;99.90;;;;;;5052113;28;20663;-74
2023/10/15 05:05:49;;;;;;;3.80;2.10;;;7.70;99.90;;;;;;5053832;28;20214;-74
2023/10/15 05:08:17;;;;;;;1.53;1.37;;;7.70;99.90;;;;;;5053373;28;20328;-74
2023/10/15 05:10:45;;;;;;;3.43;2.13;;;7.70;99.90;;;;;;5053492;28;20195;-74
2023/10/15 05:13:11;;;;;;;4.10;1.60;;;7.70;99.90;;;;;;5053438;28;20199;-74
2023/10/15 05:15:38;;;;;;;4.20;1.50;;;7.60;99.90;;;;;;5048180;28;20224;-74
2023/10/15 05:18:04;;;;;;;5.10;1.37;;;7.60;99.90;;;;;;5032084;28;20270;-74
2023/10/15 05:20:31;;;;;;;5.20;1.73;;;7.60;99.90;;;;;;5033391;28;20593;-74
2023/10/15 05:22:57;;;;;;;4.43;1.73;;;7.60;99.90;;;;;;5033213;28;20224;-74
2023/10/15 05:25:22;;;;;;;4.43;1.80;;;7.70;99.90;;;;;;5033520;28;20168;-75
2023/10/15 05:27:51;;;;;;;4.20;1.67;;;7.70;99.90;;;;;;5033205;28;20542;-75
2023/10/15 05:30:18;;;;;;;3.57;2.10;;;7.70;99.90;;;;;;5031729;28;20192;-74
2023/10/15 05:32:44;;;;;;;4.13;1.40;;;7.80;99.90;;;;;;5033199;28;20207;-74
2023/10/15 05:35:10;;;;;;;1.50;1.30;;;7.80;99.90;;;;;;5036090;28;20192;-74
2023/10/15 05:37:36;;;;;;;2.47;1.50;;;7.80;99.90;;;;;;5052925;28;20172;-74
2023/10/15 05:40:06;;;;;;;3.40;1.10;;;7.70;99.90;;;;;;5050902;28;20643;-75
2023/10/15 05:42:32;;;;;;;2.97;1.17;;;7.80;99.90;;;;;;5052724;28;20207;-74
2023/10/15 05:44:58;;;;;;;2.27;1.13;;;7.70;99.90;;;;;;5052075;28;20195;-75
2023/10/15 05:47:24;;;;;;;1.67;1.10;;;7.70;99.90;;;;;;5052810;28;20278;-75
2023/10/15 05:49:49;;;;;;;2.93;1.10;;;7.70;99.90;;;;;;5052785;28;20643;-74
2023/10/15 05:52:15;;;;;;;2.00;1.20;;;7.70;99.90;;;;;;5052697;28;20223;-75
2023/10/15 05:54:41;;;;;;;1.87;1.10;;;7.60;99.90;;;;;;5050325;28;20516;-74
2023/10/15 05:57:07;;;;;;;2.50;1.10;;;7.70;99.90;;;;;;5052608;28;20199;-75
2023/10/15 05:59:36;;;;;;;2.00;1.03;;;7.60;99.90;;;;;;5051473;28;20278;-74
2023/10/15 06:02:04;;;;;;;1.70;0.90;;;7.60;99.90;;;;;;5052444;28;20527;-74
2023/10/15 06:04:30;;;;;;;3.10;1.10;;;7.60;99.90;;;;;;5052538;28;20262;-74
2023/10/15 06:06:55;;;;;;;2.10;1.07;;;7.70;99.90;;;;;;5052483;28;20186;-74
2023/10/15 06:09:21;;;;;;;2.13;1.00;;;7.60;99.90;;;;;;5052367;28;20180;-74
2023/10/15 06:11:46;;;;;;;1.83;0.97;;;7.70;99.90;;;;;;5044469;28;20877;-75
2023/10/15 06:14:12;;;;;;;2.50;0.90;;;7.70;99.90;;;;;;5042252;28;20698;-75
2023/10/15 06:16:38;;;;;;;1.70;0.80;;;7.70;99.90;;;;;;5051462;28;20199;-75
2023/10/15 06:19:03;;;;;;;2.63;0.80;;;7.70;99.90;;;;;;5052242;28;20180;-74
2023/10/15 06:21:29;;;;;;;2.60;0.83;;;7.70;99.90;;;;;;5050287;28;20196;-75
2023/10/15 06:23:54;;;;;;;2.30;0.80;;;7.70;99.90;;;;;;5052375;28;20196;-74
2023/10/15 06:26:20;;;;;;;2.93;1.27;;;7.70;99.90;;;;;;5050823;28;20599;-74
2023/10/15 06:28:46;;;;;;;3.53;0.80;;;7.70;99.90;;;;;;5050123;28;20719;-74
2023/10/15 06:31:11;;;;;;;3.27;1.17;;;7.70;99.90;;;;;;5052042;28;20256;-74
2023/10/15 06:33:40;;;;;;;2.57;1.10;;;7.70;99.90;;;;;;5052015;28;20566;-74
2023/10/15 06:36:09;;;;;;;3.10;1.20;;;7.70;99.90;;;;;;5050728;28;20520;-74
2023/10/15 06:38:35;;;;;;;2.13;1.33;;;7.80;99.90;;;;;;5050668;28;20180;-75
2023/10/15 06:41:00;;;;;;;2.33;1.40;;;7.70;99.90;;;;;;5052089;28;20282;-74
2023/10/15 06:43:27;;;;;;;3.07;1.73;;;7.80;99.90;;;;;;5050578;28;20569;-74
2023/10/15 06:45:52;;;;;;;1.70;1.40;;;7.80;99.90;;;;;;5050379;28;20233;-74
2023/10/15 06:48:18;;;;;;;3.30;1.60;;;7.90;99.90;;;;;;5050569;28;20175;-75
2023/10/15 06:50:44;;;;;;;4.10;1.60;;;7.90;99.90;;;;;;5052349;28;20168;-75
2023/10/15 06:53:10;;;;;;;2.60;1.70;;;7.90;99.90;;;;;;5052062;28;20233;-74
2023/10/15 06:55:35;;;;;;;1.97;1.40;;;7.90;99.90;;;;;;5050795;28;20594;-74
2023/10/15 06:58:01;;;;;;;4.53;1.40;;;7.90;99.90;;;;;;5051823;28;20259;-74
2023/10/15 07:00:31;;;;;;;2.90;1.30;;;7.90;99.90;;;;;;5051794;28;20175;-73
2023/10/15 07:02:56;;;;;;;3.10;1.30;;;7.90;99.90;;;;;;5038113;28;20215;-75
2023/10/15 07:05:25;;;;;;;2.63;1.50;;;7.90;99.90;;;;;;5030555;28;20608;-74
2023/10/15 07:07:52;;;;;;;1.40;1.30;;;7.90;99.90;;;;;;5031933;28;20237;-75
2023/10/15 07:10:18;;;;;;;3.80;1.60;;;7.90;99.90;;;;;;5031759;28;20175;-74
2023/10/15 07:12:45;;;;;;;3.53;1.50;;;7.90;99.90;;;;;;5031796;28;20200;-74
2023/10/15 07:15:13;;;;;;;2.90;1.43;;;7.80;99.90;;;;;;5030433;28;20208;-73
2023/10/15 07:17:39;;;;;;;3.50;1.30;;;7.60;99.90;;;;;;5030458;28;20182;-75
2023/10/15 07:20:24;;;;;;;4.07;1.60;;;7.80;99.90;;;;;;5031372;28;20196;-75
2023/10/15 07:22:51;;;;;;;3.53;1.67;;;7.80;99.90;;;;;;5032034;28;20208;-75
2023/10/15 07:25:21;;;;;;;5.13;1.90;;;7.80;99.90;;;;;;5031715;28;20168;-75
2023/10/15 07:27:49;;;;;;;4.47;1.50;;;7.90;99.90;;;;;;5031720;28;20252;-74
2023/10/15 07:30:21;;;;;;;3.00;1.50;;;7.90;99.90;;;;;;5030462;28;20216;-74
2023/10/15 07:32:47;;;;;;;2.80;1.67;;;7.90;99.90;;;;;;5031339;28;20295;-74
2023/10/15 07:35:14;;;;;;;5.20;1.70;;;8.00;99.90;;;;;;5033536;28;20235;-74
2023/10/15 07:37:41;;;;;;;3.27;1.63;;;8.00;99.90;;;;;;5055048;28;20183;-75
2023/10/15 07:40:16;;;;;;;2.27;1.23;;;8.00;99.90;;;;;;5055224;28;20630;-75
2023/10/15 07:42:46;;;;;;;2.77;1.30;;;8.00;99.90;;;;;;5053758;28;20694;-75
2023/10/15 07:45:12;;;;;;;3.33;1.53;;;8.00;99.90;;;;;;5055388;28;20176;-74
2023/10/15 07:47:38;;;;;;;3.97;1.43;;;8.00;99.90;;;;;;5055012;28;20168;-75
2023/10/15 07:50:09;;;;;;;3.37;1.20;;;8.10;99.90;;;;;;5054995;28;20190;-75
2023/10/15 07:52:35;;;;;;;2.77;1.40;;;8.10;99.90;;;;;;5052975;28;20640;-75
2023/10/15 07:55:01;;;;;;;2.93;1.10;;;8.10;99.90;;;;;;5054958;28;20728;-74
2023/10/15 07:57:27;;;;;;;2.90;1.60;;;8.10;99.90;;;;;;5055001;28;20175;-75
2023/10/15 07:59:58;;;;;;;3.70;1.40;;;8.10;99.90;;;;;;5053533;28;20686;-75
2023/10/15 08:02:27;;;;;;;4.30;1.03;;;8.20;99.90;;;;;;5054210;28;20217;-74
2023/10/15 08:04:54;;;;;;;3.03;1.27;;;8.20;99.90;;;;;;5054837;28;20222;-74
2023/10/15 08:07:20;;;;;;;2.77;1.10;;;8.20;99.90;;;;;;5053688;28;20541;-75
2023/10/15 08:09:46;;;;;;;2.10;1.10;;;8.20;99.90;;;;;;5051969;28;20233;-74
2023/10/15 08:12:11;;;;;;;2.40;1.20;;;8.20;99.90;;;;;;5053217;28;20257;-75
2023/10/15 08:14:37;;;;;;;3.50;1.60;;;8.20;99.90;;;;;;5054718;28;20183;-75
2023/10/15 08:17:03;;;;;;;4.23;1.50;;;8.20;99.90;;;;;;5054613;28;20195;-75
2023/10/15 08:19:29;;;;;;;4.07;2.20;;;8.20;99.90;;;;;;5053236;28;20179;-74
2023/10/15 08:21:54;;;;;;;3.77;1.80;;;8.20;99.90;;;;;;5053122;28;20252;-74
2023/10/15 08:24:20;;;;;;;4.47;2.00;;;8.20;99.90;;;;;;5053133;28;20266;-75
2023/10/15 08:26:47;;;;;;;5.67;1.90;;;8.20;99.90;;;;;;5037166;28;20191;-75
2023/10/15 08:29:12;;;;;;;3.90;1.73;;;8.20;99.90;;;;;;5034454;28;20171;-75
2023/10/15 08:31:38;;;;;;;4.37;1.40;;;8.20;99.90;;;;;;5032897;28;20188;-75
2023/10/15 08:34:04;;;;;;;4.00;1.30;;;8.30;99.90;;;;;;5033277;28;20224;-74
2023/10/15 08:36:30;;;;;;;2.70;1.07;;;8.30;99.90;;;;;;5032918;28;20715;-75
2023/10/15 08:38:56;;;;;;;4.03;1.30;;;8.40;99.90;;;;;;5032876;28;20234;-74
2023/10/15 08:41:27;;;;;;;1.63;1.07;;;8.40;99.90;;;;;;5045070;28;20279;-74
2023/10/15 08:43:53;;;;;;;3.47;1.30;;;8.30;99.90;;;;;;5053981;28;20552;-75
2023/10/15 08:46:22;;;;;;;3.00;1.90;;;8.40;99.90;;;;;;5052655;28;20179;-75
2023/10/15 08:48:49;;;;;;;2.87;1.30;;;8.50;99.90;;;;;;5054139;28;20268;-75
2023/10/15 08:51:21;;;;;;;2.70;1.23;;;8.40;99.90;;;;;;5052602;28;20592;-75
2023/10/15 08:53:50;;;;;;;7.17;1.27;;;8.50;99.90;;;;;;5048215;28;20822;-74
2023/10/15 08:56:21;;;;;;;6.20;1.60;;;8.50;99.90;;;;;;5051600;28;20271;-74
2023/10/15 08:58:57;;;;;;;3.37;1.60;;;8.60;99.90;;;;;;5053815;28;20168;-75
2023/10/15 09:01:23;;;;;;;3.27;1.70;;;8.60;99.90;;;;;;5052446;28;20232;-74
2023/10/15 09:03:52;;;;;;;3.80;1.57;;;8.60;99.90;;;;;;5053642;28;20238;-75
2023/10/15 09:06:19;;;;;;;3.40;2.03;;;8.70;99.90;;;;;;5054140;28;20163;-75
2023/10/15 09:08:50;;;;;;;6.43;1.83;;;8.70;99.90;;;;;;5052374;28;20179;-75
2023/10/15 09:11:24;;;;;;;3.07;1.50;;;8.70;99.90;;;;;;5053557;28;20297;-75
2023/10/15 09:13:54;;;;;;;5.23;2.37;;;8.70;99.90;;;;;;5053482;28;20222;-76
2023/10/15 09:16:20;;;;;;;4.30;1.90;;;8.70;99.90;;;;;;5053403;28;20179;-76
2023/10/15 09:18:47;;;;;;;4.57;1.90;;;8.70;99.90;;;;;;5053396;28;20255;-76
2023/10/15 09:21:23;;;;;;;3.97;1.63;;;8.70;99.90;;;;;;5047675;28;20567;-75
2023/10/15 09:23:50;;;;;;;1.90;1.10;;;8.80;99.90;;;;;;5033376;28;20725;-75
2023/10/15 09:26:17;;;;;;;1.77;1.00;;;8.90;99.90;;;;;;5048022;28;20204;-77
2023/10/15 09:28:43;;;;;;;3.70;1.20;;;8.90;99.90;;;;;;5053486;28;20172;-75
2023/10/15 09:31:10;;;;;;;4.17;1.10;;;8.90;99.90;;;;;;5053523;28;20641;-75
2023/10/15 09:33:36;;;;;;;3.00;1.10;;;8.90;99.90;;;;;;5053019;28;20237;-75
2023/10/15 09:36:04;;;;;;;4.33;1.23;;;8.90;99.90;;;;;;5053009;28;20215;-75
2023/10/15 09:38:33;;;;;;;2.40;0.80;;;8.90;99.90;;;;;;5051533;28;20667;-75
2023/10/15 09:41:00;;;;;;;2.40;0.90;;;8.90;99.90;;;;;;5050660;28;20202;-75
2023/10/15 09:43:26;;;;;;;3.77;1.30;;;8.90;99.90;;;;;;5051373;28;20214;-75
2023/10/15 09:45:55;;;;;;;1.60;0.93;;;8.80;99.90;;;;;;5052880;28;20187;-75
2023/10/15 09:48:24;;;;;;;7.23;1.30;;;8.80;99.90;;;;;;5051432;28;20183;-75
2023/10/15 09:50:57;;;;;;;2.60;1.10;;;8.80;99.90;;;;;;5052786;28;20250;-75
2023/10/15 09:53:29;;;;;;;3.07;1.20;;;8.90;99.90;;;;;;5052669;28;20195;-75
2023/10/15 09:55:59;;;;;;;3.47;1.27;;;8.90;99.90;;;;;;5051946;28;20286;-75
2023/10/15 09:58:25;;;;;;;2.20;1.00;;;8.90;99.90;;;;;;5050588;28;20555;-75
2023/10/15 10:03:38;;;;;;;4.47;1.00;;;9.00;99.90;;;;;;5052672;28;20257;-74
2023/10/15 10:06:30;;;;;;;2.60;1.40;;;9.00;99.90;;;;;;5052667;28;20242;-75
2023/10/15 10:09:36;;;;;;;4.67;1.07;;;9.00;99.90;;;;;;5052441;28;20164;-75
2023/10/15 10:12:07;;;;;;;4.23;1.20;;;9.10;99.90;;;;;;5052383;28;20176;-75
2023/10/15 10:15:05;;;;;;;2.37;1.10;;;9.10;99.90;;;;;;5050167;28;20183;-75
2023/10/15 10:17:32;;;;;;;2.83;0.90;;;9.10;99.90;;;;;;5050934;28;20230;-75
2023/10/15 10:20:00;;;;;;;3.07;0.90;;;9.20;99.90;;;;;;5052290;28;20175;-75
2023/10/15 10:22:26;;;;;;;4.33;1.20;;;9.20;99.90;;;;;;5052129;28;20207;-75
2023/10/15 10:24:59;;;;;;;2.90;1.13;;;9.30;99.90;;;;;;5052350;28;20172;-75
2023/10/15 10:27:26;;;;;;;3.10;1.00;;;9.30;99.90;;;;;;5052175;28;20164;-74
2023/10/15 10:30:27;;;;;;;5.93;1.07;;;9.30;99.90;;;;;;5050671;28;20184;-75
2023/10/15 10:32:56;;;;;;;2.63;1.00;;;9.30;99.90;;;;;;5052069;28;20685;-75
2023/10/15 10:35:24;;;;;;;2.67;0.70;;;9.20;99.90;;;;;;5052060;28;20578;-76
2023/10/15 10:38:03;;;;;;;2.93;0.93;;;9.20;99.90;;;;;;5052067;28;20205;-76
2023/10/15 10:40:48;;;;;;;1.77;1.00;;;9.30;99.90;;;;;;5051930;28;20199;-74
2023/10/15 10:43:32;;;;;;;2.23;1.07;;;9.30;99.90;;;;;;5052049;28;20290;-75
2023/10/15 10:46:01;;;;;;;1.63;0.80;;;9.30;99.90;;;;;;5052026;28;20525;-75
2023/10/15 10:48:37;;;;;;;3.70;1.00;;;9.40;99.90;;;;;;5037512;28;20192;-75
2023/10/15 10:51:25;;;;;;;7.67;1.17;;;9.40;99.90;;;;;;5031157;28;20322;-75
2023/10/15 10:54:15;;;;;;;3.10;1.37;;;9.50;99.90;;;;;;5035689;28;20289;-74
2023/10/15 10:56:40;;;;;;;4.80;1.30;;;9.60;99.90;;;;;;5048497;28;20270;-75
2023/10/15 10:59:06;;;;;;;2.80;1.00;;;9.60;99.90;;;;;;5050567;28;20199;-75
2023/10/15 11:01:42;;;;;;;6.80;1.13;;;9.60;99.90;;;;;;5050554;28;20257;-75
2023/10/15 11:04:10;;;;;;;3.53;0.73;;;9.70;99.90;;;;;;5050435;28;20198;-75
2023/10/15 11:06:42;;;;;;;2.20;0.97;;;9.60;99.90;;;;;;5052397;28;20178;-76
2023/10/15 11:09:15;;;;;;;2.73;0.90;;;9.50;99.90;;;;;;5056462;28;20610;-75
2023/10/15 11:11:45;;;;;;;1.67;0.90;;;9.60;99.90;;;;;;5054725;28;20206;-76
2023/10/15 11:14:12;;;;;;;2.90;1.20;;;9.70;99.90;;;;;;5055944;28;20679;-74
2023/10/15 11:16:42;;;;;;;3.60;1.10;;;9.70;99.90;;;;;;5055808;28;20214;-77
2023/10/15 11:19:14;;;;;;;2.93;1.07;;;9.70;99.90;;;;;;5053231;28;20188;-76
2023/10/15 11:21:40;;;;;;;1.60;0.93;;;9.70;99.90;;;;;;5055614;28;20253;-74
2023/10/15 11:24:09;;;;;;;2.53;1.00;;;9.80;99.90;;;;;;5055611;28;20187;-75
2023/10/15 11:26:36;;;;;;;2.40;0.80;;;9.90;99.90;;;;;;5055564;28;20522;-75
2023/10/15 11:29:02;;;;;;;2.20;0.60;;;9.90;99.90;;;;;;5055732;28;20326;-75
2023/10/15 11:31:27;;;;;;;2.37;0.70;;;9.90;99.90;;;;;;5054175;28;20192;-75
2023/10/15 11:33:54;;;;;;;2.07;0.73;;;9.90;99.90;;;;;;5054229;28;20594;-75
2023/10/15 11:36:22;;;;;;;2.00;0.67;;;9.90;99.90;;;;;;5040233;28;20176;-75
2023/10/15 11:38:49;;;;;;;3.30;1.00;;;10.00;99.90;;;;;;5035220;28;20265;-75
2023/10/15 11:41:15;;;;;;;2.73;1.10;;;10.00;99.90;;;;;;5045276;28;20178;-75
2023/10/15 11:43:43;;;;;;;4.10;1.40;;;10.00;99.90;;;;;;5054457;28;20191;-75
2023/10/15 11:46:10;;;;;;;3.77;1.47;;;10.00;99.90;;;;;;5055331;28;20578;-75
2023/10/15 11:48:37;;;;;;;3.80;1.20;;;9.90;99.90;;;;;;5055342;28;20186;-75
2023/10/15 11:51:05;;;;;;;2.00;1.27;;;10.00;99.90;;;;;;5055296;28;20175;-75
2023/10/15 11:53:31;;;;;;;2.33;0.80;;;10.00;1.00;;;;;;5055108;28;20261;-75
2023/10/15 11:55:56;;;;;;;4.80;1.20;;;10.00;99.90;;;;;;5046480;28;20531;-75
2023/10/15 11:58:31;;;;;;;3.30;0.97;;;10.00;99.90;;;;;;5055149;28;20191;-75
2023/10/15 12:00:58;;;;;;;1.77;0.80;;;10.00;1.00;;;;;;5053374;28;20241;-74
2023/10/15 12:03:24;;;;;;;6.70;1.20;;;10.00;1.00;;;;;;5054809;28;20293;-75
2023/10/15 12:05:51;;;;;;;3.43;0.80;;;10.10;1.00;;;;;;5053695;28;20588;-75
2023/10/15 12:08:21;;;;;;;2.40;0.90;;;10.20;99.90;;;;;;5054932;28;20172;-75
2023/10/15 12:10:47;;;;;;;4.77;1.50;;;10.30;99.90;;;;;;5055464;28;20537;-75
2023/10/15 12:13:16;;;;;;;4.37;1.00;;;10.30;1.00;;;;;;5054947;28;20206;-75
2023/10/15 12:15:42;;;;;;;2.17;1.13;;;10.30;1.00;;;;;;5053798;28;20218;-74
2023/10/15 12:18:09;;;;;;;1.23;0.90;;;10.30;1.00;;;;;;5052682;28;20279;-74
2023/10/15 12:20:35;;;;;;;2.43;1.00;;;10.30;99.90;;;;;;5054591;28;20787;-75
2023/10/15 12:23:00;;;;;;;4.17;0.90;;;10.30;1.00;;;;;;5054544;28;20238;-74
2023/10/15 12:25:26;;;;;;;2.07;0.80;;;10.40;99.90;;;;;;5054672;28;20543;-75
2023/10/15 12:27:52;;;;;;;2.20;0.93;;;10.40;1.00;;;;;;5054527;28;20183;-75
2023/10/15 12:30:23;;;;;;;2.60;1.00;;;10.40;1.00;;;;;;5051100;28;20196;-75
2023/10/15 12:32:50;;;;;;;3.00;0.87;;;10.40;1.00;;;;;;5054424;28;20203;-75
2023/10/15 12:35:19;;;;;;;2.17;0.60;;;10.50;1.00;;;;;;5053066;28;20179;-75
2023/10/15 12:37:45;;;;;;;2.03;0.80;;;10.50;1.00;;;;;;5053033;28;20171;-75
2023/10/15 12:40:12;;;;;;;3.17;1.17;;;10.60;1.00;;;;;;5054574;28;20187;-75
2023/10/15 12:42:39;;;;;;;1.83;0.80;;;10.60;1.00;;;;;;5054144;28;20219;-75
2023/10/15 12:45:09;;;;;;;2.57;0.53;;;10.70;1.00;;;;;;5053880;28;20583;-75
2023/10/15 12:47:36;;;;;;;5.03;0.90;;;10.80;99.90;;;;;;5052583;28;20187;-75
2023/10/15 12:50:03;;;;;;;2.83;0.80;;;10.80;22.80;;;;;;5054163;28;20199;-75
2023/10/15 12:52:29;;;;;;;4.87;1.10;;;10.80;99.90;;;;;;5054020;28;20196;-75
2023/10/15 12:54:54;;;;;;;3.17;0.87;;;10.80;99.90;;;;;;5041228;28;20660;-75
2023/10/15 12:57:22;;;;;;;1.17;0.70;;;10.70;99.90;;;;;;5034062;28;20172;-75
2023/10/15 12:59:47;;;;;;;3.67;1.13;;;10.70;1.00;;;;;;5032751;28;20259;-75
2023/10/15 13:02:13;;;;;;;2.13;0.90;;;10.70;1.00;;;;;;5033893;28;20291;-75
2023/10/15 13:04:39;;;;;;;1.70;0.80;;;10.80;1.00;;;;;;5033940;28;20169;-75
2023/10/15 13:07:05;;;;;;;3.90;1.37;;;10.80;1.00;;;;;;5032553;28;20168;-75
2023/10/15 13:09:32;;;;;;;3.73;0.87;;;10.80;99.90;;;;;;5046474;28;20225;-75
2023/10/15 13:11:58;;;;;;;4.60;1.00;;;10.90;87.10;;;;;;5053646;28;20171;-75
2023/10/15 13:14:24;;;;;;;2.30;1.37;;;10.90;19.90;;;;;;5053651;28;20164;-75